Time;durP1;ratioP1;P1;durP2;ratioP2;P2;SDS_P1;SDS_P2;PMS_P1;PMS_P2;Temp;Humidity;BMP_temperature;BMP_pressure;BME280_temperature;BME280_humidity;BME280_pressure;Samples;Min_cycle;Max_cycle;Signal;HPM_P1;HPM_P2
2022/06/13 00:01:31;;;;;;;6.38;4.60;;;18.60;99.90;;;;;;5073417;28;20208;-59
2022/06/13 00:03:58;;;;;;;4.60;3.58;;;18.50;99.90;;;;;;5074067;28;20640;-58
2022/06/13 00:06:24;;;;;;;6.10;2.20;;;18.50;99.90;;;;;;5073148;28;20193;-58
2022/06/13 00:08:49;;;;;;;5.63;2.67;;;18.50;99.90;;;;;;5073824;28;20177;-59
2022/06/13 00:11:19;;;;;;;8.30;4.65;;;18.50;99.90;;;;;;5074146;28;20180;-60
2022/06/13 00:13:49;;;;;;;11.77;6.30;;;18.60;99.90;;;;;;5073487;28;20176;-59
2022/06/13 00:16:15;;;;;;;9.88;4.57;;;18.80;99.90;;;;;;5072658;28;20184;-59
2022/06/13 00:18:42;;;;;;;15.02;8.65;;;18.90;99.90;;;;;;5073238;28;20195;-59
2022/06/13 00:21:07;;;;;;;3.70;3.00;;;19.00;99.90;;;;;;5072720;28;20212;-59
2022/06/13 00:23:37;;;;;;;6.97;3.05;;;19.20;99.90;;;;;;5073030;28;20173;-59
2022/06/13 00:26:02;;;;;;;6.25;2.25;;;19.30;99.90;;;;;;5073209;28;20180;-59
2022/06/13 00:28:28;;;;;;;3.45;2.13;;;19.50;99.90;;;;;;5073064;28;20177;-59
2022/06/13 00:30:53;;;;;;;4.25;2.20;;;19.60;99.90;;;;;;5073503;28;20181;-59
2022/06/13 00:33:19;;;;;;;4.20;2.00;;;19.60;99.90;;;;;;5072022;28;20181;-59
2022/06/13 00:35:44;;;;;;;2.30;1.80;;;19.70;99.90;;;;;;5073460;28;20542;-59
2022/06/13 00:38:11;;;;;;;2.75;1.95;;;19.80;99.90;;;;;;5073232;28;20533;-59
2022/06/13 00:40:37;;;;;;;4.35;2.30;;;19.80;99.90;;;;;;5072890;28;20196;-59
2022/06/13 00:43:05;;;;;;;4.28;2.42;;;19.80;99.90;;;;;;5073336;28;20542;-59
2022/06/13 00:45:35;;;;;;;4.07;2.13;;;19.80;99.90;;;;;;5072888;28;20180;-59
2022/06/13 00:48:02;;;;;;;2.60;2.35;;;19.80;99.90;;;;;;5066990;28;20180;-59
2022/06/13 00:50:32;;;;;;;3.33;2.20;;;19.80;99.90;;;;;;5073186;28;20230;-59
2022/06/13 00:53:06;;;;;;;3.35;2.20;;;19.80;99.90;;;;;;5073281;28;20223;-60
2022/06/13 00:55:36;;;;;;;2.70;1.95;;;19.80;99.90;;;;;;5073342;28;20227;-59
2022/06/13 00:58:04;;;;;;;5.10;2.20;;;19.80;99.90;;;;;;5072373;28;20639;-59
2022/06/13 01:00:30;;;;;;;2.60;2.20;;;19.70;99.90;;;;;;5072730;28;20173;-59
2022/06/13 01:02:57;;;;;;;7.20;2.33;;;19.70;99.90;;;;;;5072421;28;20188;-59
2022/06/13 01:05:27;;;;;;;3.90;1.90;;;19.60;99.90;;;;;;5072809;28;20227;-59
2022/06/13 01:07:54;;;;;;;3.75;2.10;;;19.50;99.90;;;;;;5072414;28;20274;-58
2022/06/13 01:13:08;;;;;;;5.85;2.15;;;19.50;99.90;;;;;;5073034;28;20219;-59
2022/06/13 01:15:52;;;;;;;6.28;2.40;;;19.60;99.90;;;;;;5072524;28;20177;-59
2022/06/13 01:18:45;;;;;;;2.45;1.90;;;19.70;99.90;;;;;;5072487;28;20230;-58
2022/06/13 01:21:16;;;;;;;4.75;2.30;;;19.70;99.90;;;;;;5072871;28;20208;-58
2022/06/13 01:23:52;;;;;;;5.20;2.30;;;19.70;99.90;;;;;;5072578;28;20177;-59
2022/06/13 01:26:44;;;;;;;2.83;2.03;;;19.60;99.90;;;;;;5071291;28;20259;-58
2022/06/13 01:29:41;;;;;;;26.90;16.98;;;19.50;99.90;;;;;;5070942;28;20488;-59
2022/06/13 01:32:34;;;;;;;65.72;37.78;;;19.50;99.90;;;;;;5071499;28;20181;-59
2022/06/13 01:35:20;;;;;;;12.63;8.90;;;19.40;99.90;;;;;;5071801;28;20189;-58
2022/06/13 01:38:07;;;;;;;7.53;5.20;;;19.50;99.90;;;;;;5071413;28;20287;-58
2022/06/13 01:40:51;;;;;;;5.75;4.00;;;19.50;99.90;;;;;;5068382;28;20191;-59
2022/06/13 01:43:36;;;;;;;4.90;3.30;;;19.50;99.90;;;;;;5071878;28;20203;-59
2022/06/13 01:46:27;;;;;;;3.65;2.05;;;19.50;99.90;;;;;;5061728;28;20644;-59
2022/06/13 01:49:35;;;;;;;3.95;2.00;;;19.50;99.90;;;;;;5067582;28;20277;-59
2022/06/13 01:52:16;;;;;;;5.40;1.83;;;19.40;99.90;;;;;;5065493;28;20231;-59
2022/06/13 01:54:47;;;;;;;3.70;2.00;;;19.30;99.90;;;;;;5070648;28;20268;-59
2022/06/13 01:57:27;;;;;;;3.53;2.28;;;19.20;99.90;;;;;;5072086;28;20180;-59
2022/06/13 01:59:54;;;;;;;5.53;2.00;;;19.30;99.90;;;;;;5071629;28;20185;-59
2022/06/13 02:02:32;;;;;;;4.63;1.92;;;19.30;99.90;;;;;;5071202;28;20215;-59
2022/06/13 02:05:07;;;;;;;5.47;2.00;;;19.30;99.90;;;;;;5064764;28;20516;-59
2022/06/13 02:07:41;;;;;;;5.85;2.00;;;19.30;99.90;;;;;;5071543;28;20188;-59
2022/06/13 02:10:12;;;;;;;4.78;2.10;;;19.30;99.90;;;;;;5072303;28;20192;-59
2022/06/13 02:12:40;;;;;;;2.22;1.83;;;19.20;99.90;;;;;;5071297;28;20180;-59
2022/06/13 02:15:28;;;;;;;2.88;2.00;;;19.20;99.90;;;;;;5071786;28;20185;-59
2022/06/13 02:17:59;;;;;;;3.00;1.83;;;19.10;99.90;;;;;;5071352;28;20184;-59
2022/06/13 02:20:35;;;;;;;3.47;2.20;;;19.10;99.90;;;;;;5071769;28;20238;-59
2022/06/13 02:23:08;;;;;;;38.08;23.83;;;19.10;99.90;;;;;;5071594;28;20199;-59
2022/06/13 02:25:43;;;;;;;52.53;32.42;;;19.20;99.90;;;;;;5070030;28;20682;-59
2022/06/13 02:28:23;;;;;;;6.07;4.38;;;19.20;99.90;;;;;;5070793;28;20176;-59
2022/06/13 02:30:56;;;;;;;8.85;5.07;;;19.10;99.90;;;;;;5071524;28;20502;-59
2022/06/13 02:33:47;;;;;;;4.40;2.72;;;19.10;99.90;;;;;;5071121;28;20200;-59
2022/06/13 02:36:24;;;;;;;5.78;2.60;;;19.00;99.90;;;;;;5064151;28;20668;-59
2022/06/13 02:39:24;;;;;;;6.78;2.25;;;18.90;99.90;;;;;;5071314;28;20191;-59
2022/06/13 02:41:59;;;;;;;5.50;2.03;;;18.80;99.90;;;;;;5071066;28;20239;-59
2022/06/13 02:44:35;;;;;;;3.53;1.83;;;18.60;99.90;;;;;;5068169;28;20522;-59
2022/06/13 02:47:21;;;;;;;4.15;2.30;;;18.50;99.90;;;;;;5070135;28;20180;-59
2022/06/13 02:49:54;;;;;;;4.53;1.85;;;18.40;99.90;;;;;;5070773;28;20223;-59
2022/06/13 02:52:47;;;;;;;2.80;1.98;;;18.40;99.90;;;;;;5070667;28;20177;-59
2022/06/13 02:55:15;;;;;;;8.15;3.45;;;18.50;99.90;;;;;;5062411;28;20188;-59
2022/06/13 02:57:52;;;;;;;5.18;2.72;;;18.50;99.90;;;;;;5071458;28;20189;-59
2022/06/13 03:00:40;;;;;;;4.95;2.15;;;18.50;99.90;;;;;;5070802;28;20192;-59
2022/06/13 03:03:13;;;;;;;6.95;3.38;;;18.40;99.90;;;;;;5070877;28;20670;-59
2022/06/13 03:05:46;;;;;;;6.22;2.58;;;18.20;99.90;;;;;;5071440;28;20165;-59
2022/06/13 03:08:28;;;;;;;4.90;2.15;;;18.10;99.90;;;;;;5070990;28;20197;-59
2022/06/13 03:11:07;;;;;;;4.57;2.03;;;17.90;99.90;;;;;;5070586;28;20189;-59
2022/06/13 03:14:03;;;;;;;6.38;1.90;;;17.80;99.90;;;;;;5070551;28;20181;-59
2022/06/13 03:16:44;;;;;;;3.80;1.90;;;17.70;99.90;;;;;;5070931;28;20208;-59
2022/06/13 03:19:35;;;;;;;9.40;1.88;;;17.70;99.90;;;;;;5070668;28;20687;-59
2022/06/13 03:22:35;;;;;;;4.75;2.00;;;17.70;99.90;;;;;;5070474;28;20220;-59
2022/06/13 03:25:10;;;;;;;4.70;1.95;;;17.70;99.90;;;;;;5070289;28;20235;-59
2022/06/13 03:27:39;;;;;;;5.40;2.00;;;17.70;99.90;;;;;;5070617;28;20190;-59
2022/06/13 03:30:09;;;;;;;29.30;16.13;;;17.60;99.90;;;;;;5068137;28;20204;-59
2022/06/13 03:33:39;;;;;;;9.65;5.80;;;17.60;99.90;;;;;;5070742;28;20181;-59
2022/06/13 03:35:32;;;;;;;24.05;15.00;;;17.60;99.90;;;;;;5071062;28;20482;-59
2022/06/13 03:38:00;;;;;;;10.40;5.05;;;17.70;99.90;;;;;;5070567;28;20663;-58
2022/06/13 03:40:28;;;;;;;8.15;4.55;;;17.80;99.90;;;;;;5070106;28;20193;-59
2022/06/13 03:42:58;;;;;;;6.28;2.67;;;17.80;99.90;;;;;;5070376;28;20251;-59
2022/06/13 03:45:35;;;;;;;5.57;2.47;;;17.90;99.90;;;;;;5070806;28;20677;-59
2022/06/13 03:48:11;;;;;;;70.75;38.15;;;17.90;99.90;;;;;;5070039;28;20184;-58
2022/06/13 03:50:46;;;;;;;30.60;16.70;;;17.90;99.90;;;;;;5068961;28;20180;-58
2022/06/13 03:53:22;;;;;;;17.00;7.25;;;17.90;99.90;;;;;;5070262;28;20193;-58
2022/06/13 03:55:51;;;;;;;6.60;2.20;;;17.90;99.90;;;;;;5071392;28;20221;-58
2022/06/13 03:58:24;;;;;;;9.98;2.30;;;17.80;99.90;;;;;;5074504;28;20211;-58
2022/06/13 04:01:31;;;;;;;4.05;1.80;;;17.50;99.90;;;;;;5074044;28;20268;-58
2022/06/13 04:04:00;;;;;;;4.22;2.08;;;17.20;99.90;;;;;;5071623;28;20278;-58
2022/06/13 04:06:48;;;;;;;5.90;1.95;;;17.00;99.90;;;;;;5073522;28;20223;-57
2022/06/13 04:09:18;;;;;;;4.65;2.08;;;17.00;99.90;;;;;;5058749;28;20547;-58
2022/06/13 04:12:17;;;;;;;4.38;1.83;;;16.90;99.90;;;;;;5073183;28;20195;-58
2022/06/13 04:15:06;;;;;;;6.40;1.92;;;16.90;99.90;;;;;;5074304;28;20530;-58
2022/06/13 04:17:35;;;;;;;4.57;2.00;;;16.90;99.90;;;;;;5074484;28;20264;-59
2022/06/13 04:20:25;;;;;;;7.15;2.30;;;17.10;99.90;;;;;;5073412;28;20228;-58
2022/06/13 04:22:53;;;;;;;4.45;2.20;;;17.40;99.90;;;;;;5072579;28;20518;-58
2022/06/13 04:25:37;;;;;;;7.55;2.40;;;17.70;99.90;;;;;;5074151;28;20226;-58
2022/06/13 04:28:20;;;;;;;6.22;2.30;;;18.10;99.90;;;;;;5072899;28;20516;-58
2022/06/13 04:30:46;;;;;;;5.55;2.00;;;18.40;99.90;;;;;;5074232;28;20176;-59
2022/06/13 04:33:18;;;;;;;4.70;1.83;;;18.60;99.90;;;;;;5073516;28;20195;-59
2022/06/13 04:35:46;;;;;;;3.58;1.85;;;18.80;99.90;;;;;;5073830;28;20540;-58
2022/06/13 04:38:14;;;;;;;6.35;1.90;;;18.90;99.90;;;;;;5073647;28;20198;-58
2022/06/13 04:40:53;;;;;;;4.10;2.20;;;19.10;99.90;;;;;;5073912;28;20173;-58
2022/06/13 04:43:23;;;;;;;5.07;1.90;;;19.50;99.90;;;;;;5074488;28;20184;-58
2022/06/13 04:45:57;;;;;;;5.47;2.10;;;19.80;99.90;;;;;;5074364;28;20531;-59
2022/06/13 04:48:22;;;;;;;5.32;2.13;;;20.00;99.90;;;;;;5073920;28;20180;-59
2022/06/13 04:50:51;;;;;;;4.35;2.25;;;20.10;99.90;;;;;;5074312;28;20187;-59
2022/06/13 04:53:28;;;;;;;5.22;2.10;;;20.30;99.90;;;;;;5074053;28;20208;-58
2022/06/13 04:55:55;;;;;;;5.80;1.90;;;20.60;99.90;;;;;;5074029;28;20640;-59
2022/06/13 04:58:38;;;;;;;3.83;2.08;;;20.80;99.30;;;;;;5074143;28;20192;-58
2022/06/13 05:01:15;;;;;;;4.03;1.73;;;20.80;98.40;;;;;;5073840;28;20740;-58
2022/06/13 05:03:42;;;;;;;2.42;1.63;;;21.00;97.50;;;;;;5074069;28;20192;-58
2022/06/13 05:06:31;;;;;;;2.45;1.77;;;21.20;97.00;;;;;;5073889;28;20184;-58
2022/06/13 05:09:04;;;;;;;8.90;1.90;;;21.30;96.40;;;;;;5071903;28;20180;-58
2022/06/13 05:11:43;;;;;;;5.03;2.03;;;21.70;96.20;;;;;;5073821;28;20262;-58
2022/06/13 05:14:17;;;;;;;5.20;2.15;;;21.90;95.40;;;;;;5073750;28;20165;-58
2022/06/13 05:16:54;;;;;;;5.55;2.33;;;22.30;94.20;;;;;;5073782;28;20184;-58
2022/06/13 05:19:41;;;;;;;3.08;1.90;;;22.50;93.30;;;;;;5073625;28;20228;-58
2022/06/13 05:22:17;;;;;;;6.35;1.88;;;22.60;93.50;;;;;;5073519;28;20212;-58
2022/06/13 05:25:08;;;;;;;6.50;2.08;;;22.80;92.60;;;;;;5073636;28;20620;-58
2022/06/13 05:27:34;;;;;;;5.47;2.30;;;23.00;92.40;;;;;;5073514;28;20173;-58
2022/06/13 05:29:59;;;;;;;5.38;2.33;;;23.40;91.10;;;;;;5073432;28;20577;-59
2022/06/13 05:32:25;;;;;;;6.30;2.88;;;23.70;91.00;;;;;;5073476;28;20521;-59
2022/06/13 05:34:52;;;;;;;5.38;2.38;;;23.90;89.80;;;;;;5073326;28;20169;-59
2022/06/13 05:37:19;;;;;;;4.93;1.90;;;23.80;89.30;;;;;;5073206;28;20184;-58
2022/06/13 05:39:45;;;;;;;3.30;1.92;;;24.30;89.40;;;;;;5073385;28;20653;-58
2022/06/13 05:42:14;;;;;;;4.97;2.08;;;24.60;87.70;;;;;;5072972;28;20691;-58
2022/06/13 05:44:43;;;;;;;4.43;2.10;;;24.60;84.10;;;;;;5073254;28;20283;-59
2022/06/13 05:47:16;;;;;;;4.13;1.63;;;24.50;84.70;;;;;;5073098;28;20188;-58
2022/06/13 05:49:41;;;;;;;6.75;2.15;;;24.40;85.10;;;;;;5073161;28;20165;-58
2022/06/13 05:52:07;;;;;;;6.13;2.17;;;24.00;85.20;;;;;;5071735;28;20216;-58
2022/06/13 05:54:32;;;;;;;7.82;2.28;;;23.50;87.10;;;;;;5073012;28;20173;-58
2022/06/13 05:56:58;;;;;;;4.45;2.03;;;23.20;87.80;;;;;;5072893;28;20177;-58
2022/06/13 05:59:23;;;;;;;5.80;2.08;;;23.20;89.10;;;;;;5072804;28;20259;-59
2022/06/13 06:01:49;;;;;;;4.57;1.67;;;23.90;88.20;;;;;;5072783;28;20283;-59
2022/06/13 06:04:14;;;;;;;6.07;2.13;;;24.40;86.30;;;;;;5072809;28;20192;-59
2022/06/13 06:06:40;;;;;;;4.18;1.98;;;24.60;83.90;;;;;;5072803;28;20183;-59
2022/06/13 06:09:06;;;;;;;4.50;1.90;;;24.90;85.10;;;;;;5072719;28;20173;-58
2022/06/13 06:11:32;;;;;;;4.60;1.77;;;25.70;82.30;;;;;;5072590;28;20666;-58
2022/06/13 06:13:58;;;;;;;5.15;1.90;;;26.60;75.80;;;;;;5072652;28;20185;-58
2022/06/13 06:16:25;;;;;;;5.45;2.05;;;27.00;72.90;;;;;;5072743;28;20180;-58
2022/06/13 06:18:51;;;;;;;6.80;2.33;;;27.70;69.90;;;;;;5072266;28;20255;-59
2022/06/13 06:21:17;;;;;;;3.72;1.80;;;28.50;67.40;;;;;;5072454;28;20574;-59
2022/06/13 06:23:42;;;;;;;3.42;1.45;;;29.00;65.10;;;;;;5072675;28;20184;-58
2022/06/13 06:26:12;;;;;;;2.67;1.67;;;29.20;61.30;;;;;;5072488;28;20666;-59
2022/06/13 06:28:38;;;;;;;5.57;1.63;;;29.40;58.70;;;;;;5072508;28;20188;-59
2022/06/13 06:31:04;;;;;;;5.65;1.90;;;29.80;58.20;;;;;;5072475;28;20180;-59
2022/06/13 06:33:30;;;;;;;3.70;1.60;;;30.00;56.50;;;;;;5072540;28;20192;-59
2022/06/13 06:35:56;;;;;;;3.85;1.38;;;30.40;55.50;;;;;;5072380;28;20176;-59
2022/06/13 06:38:23;;;;;;;3.50;1.42;;;30.50;54.70;;;;;;5072407;28;20183;-59
2022/06/13 06:40:49;;;;;;;4.95;1.55;;;30.90;54.20;;;;;;5072162;28;20188;-60
2022/06/13 06:43:14;;;;;;;2.35;1.60;;;31.40;52.30;;;;;;5072218;28;20177;-59
2022/06/13 06:45:42;;;;;;;7.10;1.73;;;31.90;51.80;;;;;;5072223;28;20272;-59
2022/06/13 06:48:13;;;;;;;3.97;1.35;;;32.30;50.60;;;;;;5072130;28;20738;-59
2022/06/13 06:50:41;;;;;;;4.65;1.63;;;32.20;49.50;;;;;;5072300;28;20173;-59
2022/06/13 06:53:07;;;;;;;4.22;1.65;;;32.40;48.20;;;;;;5072156;28;20184;-59
2022/06/13 07:00:54;;;;;;;3.13;1.55;;;33.10;46.80;;;;;;5072069;28;20172;-59
2022/06/13 07:03:20;;;;;;;4.35;1.63;;;33.30;46.30;;;;;;5072128;28;20279;-59
2022/06/13 07:05:46;;;;;;;2.65;1.30;;;33.60;46.50;;;;;;5072116;28;20200;-59
2022/06/13 07:08:13;;;;;;;5.10;1.40;;;33.80;45.10;;;;;;5071948;28;20218;-59
2022/06/13 07:10:39;;;;;;;4.10;1.80;;;34.00;44.30;;;;;;5072156;28;20183;-59
2022/06/13 07:13:05;;;;;;;4.78;1.60;;;34.00;43.80;;;;;;5071940;28;20627;-59
2022/06/13 07:15:30;;;;;;;3.25;1.77;;;34.00;43.50;;;;;;5071936;28;20208;-59
2022/06/13 07:17:56;;;;;;;2.15;1.58;;;33.90;43.60;;;;;;5071945;28;20198;-59
2022/06/13 07:20:22;;;;;;;3.53;1.67;;;33.80;43.90;;;;;;5071877;28;20587;-59
2022/06/13 07:22:50;;;;;;;4.63;1.20;;;33.30;42.70;;;;;;5071885;28;20224;-59
2022/06/13 07:25:19;;;;;;;4.95;1.60;;;33.10;42.70;;;;;;5071824;28;20192;-59
2022/06/13 07:27:45;;;;;;;3.25;1.27;;;33.00;43.30;;;;;;5072034;28;20576;-59
2022/06/13 07:30:12;;;;;;;5.18;1.50;;;32.80;43.90;;;;;;5071742;28;20273;-60
2022/06/13 07:32:39;;;;;;;1.98;1.33;;;32.80;43.40;;;;;;5075488;28;20713;-59
2022/06/13 07:35:05;;;;;;;6.25;1.60;;;32.90;43.60;;;;;;5075550;28;20181;-58
2022/06/13 07:40:15;;;;;;;3.45;1.42;;;32.70;44.20;;;;;;5075650;28;20690;-58
2022/06/13 07:42:50;;;;;;;5.70;1.48;;;32.50;43.70;;;;;;5075490;28;20216;-58
2022/06/13 07:45:23;;;;;;;3.75;1.77;;;32.60;43.60;;;;;;5075364;28;20180;-58
2022/06/13 07:47:51;;;;;;;2.67;1.27;;;32.70;42.90;;;;;;5075226;28;20639;-58
2022/06/13 07:50:20;;;;;;;5.53;1.60;;;32.70;42.20;;;;;;5075379;28;20180;-57
2022/06/13 07:52:46;;;;;;;3.90;1.70;;;32.60;43.00;;;;;;5075343;28;20203;-58
2022/06/13 07:55:12;;;;;;;3.45;1.30;;;32.40;43.10;;;;;;5075094;28;20179;-57
2022/06/13 07:57:38;;;;;;;5.55;1.45;;;32.50;43.40;;;;;;5075253;28;20180;-58
2022/06/13 08:00:06;;;;;;;2.33;1.45;;;32.60;43.90;;;;;;5075114;28;20268;-58
2022/06/13 08:02:34;;;;;;;2.80;1.40;;;32.80;42.90;;;;;;5074887;28;20216;-58
2022/06/13 08:05:00;;;;;;;2.50;1.38;;;33.00;42.10;;;;;;5075072;28;20226;-58
2022/06/13 08:07:26;;;;;;;3.50;1.40;;;33.00;42.30;;;;;;5075106;28;20202;-59
2022/06/13 08:09:51;;;;;;;2.50;1.38;;;33.30;42.80;;;;;;5074874;28;20255;-59
2022/06/13 08:12:19;;;;;;;5.47;1.60;;;33.50;43.20;;;;;;5074907;28;20183;-58
2022/06/13 08:14:47;;;;;;;5.40;1.30;;;33.60;42.30;;;;;;5074819;28;20596;-59
2022/06/13 08:17:19;;;;;;;2.65;1.50;;;33.80;42.50;;;;;;5074822;28;20231;-58
2022/06/13 08:19:45;;;;;;;5.68;1.48;;;33.80;41.10;;;;;;5074661;28;20385;-58
2022/06/13 08:22:11;;;;;;;4.38;1.40;;;33.30;41.40;;;;;;5074629;28;20289;-58
2022/06/13 08:24:37;;;;;;;4.97;1.77;;;33.10;42.20;;;;;;5074647;28;20667;-59
2022/06/13 08:27:03;;;;;;;3.63;1.80;;;33.00;42.50;;;;;;5074737;28;20173;-59
2022/06/13 08:29:29;;;;;;;2.88;1.48;;;33.10;43.30;;;;;;5074677;28;20173;-59
2022/06/13 08:31:55;;;;;;;4.50;1.58;;;33.20;42.10;;;;;;5074537;28;20177;-59
2022/06/13 08:34:21;;;;;;;6.47;1.92;;;33.10;41.90;;;;;;5074692;28;20589;-59
2022/06/13 08:36:47;;;;;;;4.85;1.60;;;32.90;42.80;;;;;;5074605;28;20177;-58
2022/06/13 08:39:13;;;;;;;6.00;2.10;;;32.10;42.70;;;;;;5074487;28;20268;-59
2022/06/13 08:42:01;;;;;;;5.47;1.98;;;31.10;44.20;;;;;;5074235;28;20224;-59
2022/06/13 08:44:52;;;;;;;4.75;1.90;;;30.70;45.00;;;;;;5074105;28;20169;-58
2022/06/13 08:48:06;;;;;;;5.40;2.40;;;30.80;46.30;;;;;;5074311;28;20177;-58
2022/06/13 08:50:53;;;;;;;4.50;1.77;;;30.90;45.60;;;;;;5069159;28;20188;-58
2022/06/13 08:53:26;;;;;;;4.95;1.73;;;30.60;46.30;;;;;;5074185;28;20172;-58
2022/06/13 08:56:04;;;;;;;6.03;1.95;;;30.00;45.50;;;;;;5074259;28;20165;-59
2022/06/13 08:58:39;;;;;;;5.00;1.90;;;29.40;47.90;;;;;;5074186;28;20177;-59
2022/06/13 09:01:14;;;;;;;6.72;2.30;;;29.30;47.40;;;;;;5073963;28;20235;-59
2022/06/13 09:03:51;;;;;;;3.95;1.90;;;29.20;47.80;;;;;;5074063;28;20627;-59
2022/06/13 09:06:28;;;;;;;9.00;1.77;;;29.20;48.10;;;;;;5074081;28;20164;-59
2022/06/13 09:09:14;;;;;;;3.35;1.50;;;29.00;49.90;;;;;;5073899;28;20245;-59
2022/06/13 09:11:52;;;;;;;7.25;1.70;;;29.20;49.40;;;;;;5073927;28;20200;-59
2022/06/13 09:14:34;;;;;;;4.70;1.83;;;29.70;48.60;;;;;;5073979;28;20234;-59
2022/06/13 09:17:11;;;;;;;4.35;1.88;;;29.80;47.80;;;;;;5073690;28;20168;-59
2022/06/13 09:20:01;;;;;;;7.85;1.90;;;29.70;47.00;;;;;;5073581;28;20634;-59
2022/06/13 09:22:35;;;;;;;5.10;1.60;;;29.80;46.80;;;;;;5072342;28;20252;-60
2022/06/13 09:25:25;;;;;;;2.92;1.52;;;29.70;44.80;;;;;;5073581;28;20179;-59
2022/06/13 09:27:57;;;;;;;5.88;1.70;;;29.40;44.50;;;;;;5073446;28;20212;-60
2022/06/13 09:30:33;;;;;;;3.97;1.45;;;29.60;46.10;;;;;;5073555;28;20627;-59
2022/06/13 09:33:10;;;;;;;5.43;2.55;;;29.50;47.20;;;;;;5073531;28;20208;-59
2022/06/13 09:35:58;;;;;;;7.65;3.22;;;29.40;45.20;;;;;;5073811;28;20566;-59
2022/06/13 09:38:26;;;;;;;3.63;1.60;;;29.10;45.60;;;;;;5073513;28;20234;-60
2022/06/13 09:40:54;;;;;;;4.72;1.65;;;28.70;45.00;;;;;;5073122;28;20256;-60
2022/06/13 09:43:42;;;;;;;6.43;1.83;;;27.80;45.20;;;;;;5073634;28;20234;-59
2022/06/13 09:46:29;;;;;;;4.25;1.85;;;27.60;47.30;;;;;;5073135;28;20181;-59
2022/06/13 09:49:29;;;;;;;3.90;1.45;;;27.70;48.10;;;;;;5073131;28;20173;-59
2022/06/13 09:52:02;;;;;;;3.17;1.40;;;28.00;48.30;;;;;;5072902;28;20175;-60
2022/06/13 09:54:48;;;;;;;6.13;1.90;;;28.00;47.40;;;;;;5073016;28;20177;-59
2022/06/13 09:57:41;;;;;;;3.25;1.52;;;28.40;46.30;;;;;;5072956;28;20172;-59
2022/06/13 10:00:26;;;;;;;2.47;1.60;;;28.90;46.40;;;;;;5072737;28;20181;-59
2022/06/13 10:03:23;;;;;;;3.70;1.42;;;29.30;45.00;;;;;;5072599;28;20490;-59
2022/06/13 10:06:02;;;;;;;7.85;1.60;;;29.60;46.00;;;;;;5072931;28;20263;-60
2022/06/13 10:08:27;;;;;;;2.92;1.30;;;29.70;45.20;;;;;;5072867;28;20173;-59
2022/06/13 10:11:12;;;;;;;2.70;1.30;;;29.60;44.80;;;;;;5072574;28;20196;-59
2022/06/13 10:14:03;;;;;;;3.53;1.30;;;29.70;43.40;;;;;;5072825;28;20184;-59
2022/06/13 10:16:53;;;;;;;4.05;1.42;;;29.90;45.10;;;;;;5072726;28;20635;-59
2022/06/13 10:19:32;;;;;;;4.63;1.30;;;29.90;42.60;;;;;;5072446;28;20679;-59
2022/06/13 10:22:11;;;;;;;8.95;1.63;;;29.40;42.50;;;;;;5072509;28;20248;-59
2022/06/13 10:25:25;;;;;;;2.53;1.48;;;28.80;44.00;;;;;;5072519;28;20545;-59
2022/06/13 10:28:09;;;;;;;3.05;1.40;;;28.70;45.00;;;;;;5018556;28;20659;-59
2022/06/13 10:31:28;;;;;;;2.20;1.30;;;28.90;44.20;;;;;;5068755;28;20193;-59
2022/06/13 10:34:25;;;;;;;4.53;1.30;;;29.30;44.10;;;;;;5049801;28;20178;-59
2022/06/13 10:37:22;;;;;;;2.30;1.02;;;29.10;42.50;;;;;;5072340;28;20188;-60
2022/06/13 10:39:52;;;;;;;2.70;1.10;;;29.20;44.50;;;;;;5072462;28;20181;-61
2022/06/13 10:42:24;;;;;;;3.75;1.50;;;29.30;45.10;;;;;;5072348;28;20204;-59
2022/06/13 10:44:51;;;;;;;2.95;1.42;;;29.70;44.60;;;;;;5072323;28;20187;-60
2022/06/13 10:47:42;;;;;;;2.60;1.25;;;30.20;44.40;;;;;;5072395;28;20230;-59
2022/06/13 10:50:22;;;;;;;2.67;1.20;;;30.20;42.50;;;;;;5072257;28;20177;-59
2022/06/13 10:52:50;;;;;;;2.45;1.27;;;29.90;42.00;;;;;;5072342;28;20200;-60
2022/06/13 10:55:20;;;;;;;2.45;1.50;;;29.90;43.00;;;;;;5072160;28;20217;-58
2022/06/13 10:57:51;;;;;;;1.42;1.20;;;29.90;42.60;;;;;;5072224;28;20628;-59
2022/06/13 11:00:23;;;;;;;2.78;1.20;;;30.00;43.30;;;;;;5072176;28;20646;-59
2022/06/13 11:02:50;;;;;;;2.92;1.20;;;30.20;42.60;;;;;;5072160;28;20213;-59
2022/06/13 11:05:19;;;;;;;2.90;1.25;;;30.00;42.90;;;;;;5072191;28;20257;-59
2022/06/13 11:07:51;;;;;;;4.38;1.35;;;29.80;43.40;;;;;;5076286;28;20172;-59
2022/06/13 11:10:33;;;;;;;4.03;1.45;;;29.60;42.90;;;;;;5076133;28;20201;-59
2022/06/13 11:12:59;;;;;;;6.15;1.42;;;29.40;43.50;;;;;;5076153;28;20641;-59
2022/06/13 11:24:16;;;;;;;6.50;1.50;;;29.40;45.20;;;;;;5075895;28;20184;-60
2022/06/13 11:29:32;;;;;;;3.90;1.40;;;30.10;42.10;;;;;;5076088;28;20653;-59
2022/06/13 11:32:00;;;;;;;4.03;1.80;;;30.10;42.50;;;;;;5075679;28;20185;-59
2022/06/13 11:34:33;;;;;;;3.00;1.10;;;30.10;42.80;;;;;;5075854;28;20266;-59
2022/06/13 11:37:13;;;;;;;1.90;1.30;;;30.30;42.40;;;;;;5075639;28;20172;-59
2022/06/13 11:39:45;;;;;;;3.35;1.30;;;30.40;42.40;;;;;;5074378;28;20177;-59
2022/06/13 11:42:32;;;;;;;2.17;1.33;;;30.60;43.00;;;;;;5075381;28;20212;-59
2022/06/13 11:45:02;;;;;;;2.50;1.38;;;30.60;42.60;;;;;;5075519;28;20181;-59
2022/06/13 11:47:50;;;;;;;2.17;1.40;;;30.50;42.60;;;;;;5075396;28;20181;-59
2022/06/13 11:50:18;;;;;;;4.40;1.60;;;30.50;41.20;;;;;;5075351;28;20177;-59
2022/06/13 11:55:32;;;;;;;3.33;1.30;;;30.40;42.40;;;;;;5075592;28;20183;-59
2022/06/13 11:58:00;;;;;;;2.72;1.30;;;30.60;41.50;;;;;;5075261;28;20180;-59
2022/06/13 12:00:46;;;;;;;2.72;1.05;;;30.60;39.50;;;;;;5075287;28;20208;-59
2022/06/13 12:03:24;;;;;;;1.73;1.35;;;30.50;41.50;;;;;;5074991;28;20629;-59
2022/06/13 12:06:18;;;;;;;2.65;1.42;;;30.50;41.30;;;;;;5075202;28;20176;-60
2022/06/13 12:08:50;;;;;;;2.05;0.95;;;30.50;39.40;;;;;;5074180;28;20196;-59
2022/06/13 12:11:15;;;;;;;2.25;1.25;;;30.50;38.80;;;;;;5075073;28;20181;-59
2022/06/13 12:13:44;;;;;;;1.52;1.20;;;30.60;41.20;;;;;;5074990;28;20184;-59
2022/06/13 12:16:32;;;;;;;1.55;1.20;;;30.60;39.00;;;;;;5074917;28;20177;-59
2022/06/13 12:19:06;;;;;;;1.50;1.10;;;30.50;38.30;;;;;;5074703;28;20702;-59
2022/06/13 12:21:38;;;;;;;3.13;1.55;;;30.30;39.60;;;;;;5074891;28;20208;-59
2022/06/13 12:24:29;;;;;;;1.52;1.02;;;29.40;39.90;;;;;;5074988;28;20537;-59
2022/06/13 12:27:04;;;;;;;3.83;1.17;;;29.10;41.20;;;;;;5072003;28;20204;-59
2022/06/13 12:29:48;;;;;;;3.17;1.27;;;29.10;41.00;;;;;;5074797;28;20187;-59
2022/06/13 12:32:49;;;;;;;2.83;1.40;;;29.50;41.70;;;;;;5074617;28;20600;-59
2022/06/13 12:35:32;;;;;;;2.10;1.10;;;30.00;40.70;;;;;;5062803;28;20224;-59
2022/06/13 12:38:25;;;;;;;2.78;1.50;;;30.00;39.00;;;;;;5074545;28;20184;-59
2022/06/13 12:41:11;;;;;;;2.10;1.13;;;29.60;39.20;;;;;;5074462;28;20173;-59
2022/06/13 12:44:03;;;;;;;1.83;1.70;;;29.10;39.60;;;;;;5074531;28;20195;-60
2022/06/13 12:46:56;;;;;;;1.77;1.30;;;29.00;40.00;;;;;;5074513;28;20183;-60
2022/06/13 12:49:40;;;;;;;2.47;1.38;;;28.90;40.60;;;;;;5074420;28;20210;-59
2022/06/13 12:52:24;;;;;;;3.28;1.60;;;28.80;40.60;;;;;;5074340;28;20176;-59
2022/06/13 12:54:54;;;;;;;3.63;1.73;;;28.80;41.20;;;;;;5074202;28;20172;-60
2022/06/13 12:57:28;;;;;;;3.85;1.20;;;29.00;41.40;;;;;;5074251;28;20538;-59
2022/06/13 13:00:07;;;;;;;4.13;1.63;;;29.10;40.20;;;;;;5072820;28;20169;-59
2022/06/13 13:02:56;;;;;;;3.63;1.30;;;29.30;40.80;;;;;;5073937;28;20608;-59
2022/06/13 13:05:21;;;;;;;4.05;1.48;;;29.40;40.70;;;;;;5074224;28;20237;-59
2022/06/13 13:08:20;;;;;;;3.28;1.40;;;29.70;39.80;;;;;;5074049;28;20247;-60
2022/06/13 13:11:09;;;;;;;3.65;1.15;;;29.90;39.90;;;;;;5074062;28;20208;-60
2022/06/13 13:14:06;;;;;;;2.00;1.33;;;29.60;39.70;;;;;;5073816;28;20624;-59
2022/06/13 13:17:03;;;;;;;2.20;1.35;;;29.50;40.40;;;;;;5071956;28;20177;-57
2022/06/13 13:20:05;;;;;;;3.15;1.20;;;28.80;39.60;;;;;;5073877;28;20231;-57
2022/06/13 13:22:38;;;;;;;4.07;1.27;;;28.30;41.20;;;;;;5073215;28;20692;-57
2022/06/13 13:25:45;;;;;;;1.80;1.30;;;28.10;41.00;;;;;;5073563;28;20636;-57
2022/06/13 13:28:24;;;;;;;3.65;1.35;;;28.00;42.70;;;;;;5071823;28;20192;-57
2022/06/13 13:30:59;;;;;;;2.22;1.27;;;27.70;42.20;;;;;;5073604;28;20173;-57
2022/06/13 13:33:27;;;;;;;2.08;1.30;;;27.80;42.60;;;;;;5073693;28;20177;-59
2022/06/13 13:36:12;;;;;;;4.38;1.38;;;27.80;42.90;;;;;;5073334;28;20170;-59
2022/06/13 13:38:41;;;;;;;3.95;1.45;;;27.80;42.90;;;;;;5073477;28;20180;-59
2022/06/13 13:41:09;;;;;;;2.63;1.23;;;27.90;43.40;;;;;;5073243;28;20591;-60
2022/06/13 13:43:53;;;;;;;2.10;1.20;;;28.00;42.10;;;;;;5073257;28;20250;-59
2022/06/13 13:46:30;;;;;;;1.83;1.30;;;28.20;43.10;;;;;;5073564;28;20647;-59
2022/06/13 13:49:15;;;;;;;2.72;1.30;;;28.50;41.80;;;;;;5073207;28;20172;-59
2022/06/13 13:51:46;;;;;;;4.15;1.30;;;28.50;41.20;;;;;;5073233;28;20180;-59
2022/06/13 13:54:21;;;;;;;4.75;1.70;;;28.60;40.90;;;;;;5073033;28;20169;-59